< < Back
Terminal Aerodrome Forecast


Current Version              Previous Versions:   1  2  3  4  5  6  7  8  9  

Terminal Aerodrome Forecast

707
FTUS42 KGSP 222330
TAFGSP
TAF
KGSP 222330Z 2300/2324 00000KT P6SM BKN250
     FM230600 01004KT P6SM OVC110
     FM231100 03007KT P6SM -RA OVC050
     FM231300 03007KT 6SM -RA OVC016
     FM231500 04008KT 2SM -RA BR OVC007
     FM232200 05010KT 1 1/2SM -RA BR OVC002=



Latest METAR

809
SAUS70 KWBC 230400 RRO
MTRGSP
METAR KGSP 230353Z 00000KT 10SM OVC045 09/M03 A3029 RMK AO2 SLP258
T00891033


USA.gov is the U.S. government's official web portal to all federal, state and local government web resources and services.